createdAt,value
2022-08-26T00:00:47.857Z,66.80
2022-08-26T00:03:14.779Z,66.80
2022-08-26T00:05:41.756Z,67.00
2022-08-26T00:08:08.646Z,67.20
2022-08-26T00:10:40.571Z,67.30
2022-08-26T00:13:07.478Z,67.50
2022-08-26T00:15:35.548Z,67.60
2022-08-26T00:18:02.229Z,67.80
2022-08-26T00:20:31.003Z,67.90
2022-08-26T00:22:58.145Z,68.10
2022-08-26T00:25:25.211Z,68.10
2022-08-26T00:27:51.901Z,68.20
2022-08-26T00:30:22.712Z,68.40
2022-08-26T00:32:50.886Z,68.60
2022-08-26T00:35:18.892Z,68.70
2022-08-26T00:37:45.899Z,68.80
2022-08-26T00:40:16.838Z,68.80
2022-08-26T00:42:46.018Z,68.80
2022-08-26T00:45:13.372Z,68.70
2022-08-26T00:47:52.018Z,68.70
2022-08-26T00:50:31.174Z,68.50
2022-08-26T00:52:58.409Z,68.40
2022-08-26T00:55:37.845Z,68.30
2022-08-26T00:58:04.973Z,68.40
2022-08-26T01:03:15.181Z,68.10
2022-08-26T01:05:42.079Z,68.20
2022-08-26T01:08:09.192Z,68.30
2022-08-26T01:10:35.853Z,68.40
2022-08-26T01:13:04.881Z,68.60
2022-08-26T01:15:34.330Z,68.80
2022-08-26T01:18:01.319Z,68.90
2022-08-26T01:20:59.493Z,69.10
2022-08-26T01:23:28.846Z,69.00
2022-08-26T01:26:05.123Z,68.90
2022-08-26T01:28:32.592Z,69.00
2022-08-26T01:30:59.472Z,69.10
2022-08-26T01:33:42.478Z,69.20
2022-08-26T01:36:09.424Z,69.20
2022-08-26T01:38:36.118Z,69.30
2022-08-26T01:41:02.773Z,69.40
2022-08-26T01:43:29.435Z,69.60
2022-08-26T01:45:56.105Z,69.80
2022-08-26T01:48:27.661Z,70.00
2022-08-26T01:50:54.430Z,70.10
2022-08-26T01:53:21.349Z,70.20
2022-08-26T01:55:49.236Z,70.30
2022-08-26T01:58:20.903Z,70.40
2022-08-26T02:00:47.662Z,70.40
2022-08-26T02:03:17.525Z,70.50
2022-08-26T02:05:51.527Z,70.80
2022-08-26T02:08:24.524Z,70.80
2022-08-26T02:10:55.060Z,71.00
2022-08-26T02:13:22.056Z,71.00
2022-08-26T02:15:49.205Z,71.00
2022-08-26T02:18:16.187Z,71.00
2022-08-26T02:20:43.127Z,71.00
2022-08-26T02:23:09.767Z,71.00
2022-08-26T02:25:59.443Z,71.00
2022-08-26T02:28:27.443Z,71.00
2022-08-26T02:30:55.664Z,71.10
2022-08-26T02:33:22.501Z,71.30
2022-08-26T02:35:49.180Z,71.50
2022-08-26T02:38:15.867Z,71.50
2022-08-26T02:40:42.606Z,71.70
2022-08-26T02:43:09.398Z,71.70
2022-08-26T02:45:36.207Z,71.60
2022-08-26T02:48:12.619Z,71.70
2022-08-26T02:50:39.627Z,71.80
2022-08-26T02:53:06.600Z,71.70
2022-08-26T02:55:35.749Z,71.90
2022-08-26T02:58:02.476Z,72.10
2022-08-26T03:00:29.730Z,72.00
2022-08-26T03:02:56.819Z,72.10
2022-08-26T03:05:24.074Z,72.00
2022-08-26T03:07:51.021Z,72.00
2022-08-26T03:10:17.916Z,72.00
2022-08-26T03:12:44.859Z,72.00
2022-08-26T03:15:16.393Z,71.90
2022-08-26T03:17:45.690Z,71.90
2022-08-26T03:20:13.651Z,71.80
2022-08-26T03:22:42.273Z,71.70
2022-08-26T03:25:10.433Z,71.60
2022-08-26T03:27:37.157Z,71.60
2022-08-26T03:30:04.549Z,71.50
2022-08-26T03:32:31.255Z,71.40
2022-08-26T03:34:57.914Z,71.30
2022-08-26T03:37:24.927Z,71.20
2022-08-26T03:39:59.217Z,71.10
2022-08-26T03:42:25.896Z,71.00
2022-08-26T03:44:52.574Z,70.90
2022-08-26T03:47:19.309Z,70.80
2022-08-26T03:49:45.949Z,70.60
2022-08-26T03:52:13.081Z,70.60
2022-08-26T03:54:40.684Z,70.60
2022-08-26T03:57:12.535Z,70.60
2022-08-26T03:59:39.241Z,70.60
2022-08-26T04:02:11.308Z,70.40
2022-08-26T04:04:40.956Z,70.40
2022-08-26T04:07:07.683Z,70.40
2022-08-26T04:09:35.131Z,70.30
2022-08-26T04:12:02.029Z,70.30
2022-08-26T04:14:30.098Z,70.40
2022-08-26T04:16:57.012Z,70.40
2022-08-26T04:19:24.457Z,70.60
2022-08-26T04:21:51.231Z,70.60
2022-08-26T04:24:17.907Z,70.70
2022-08-26T04:26:44.611Z,70.70
2022-08-26T04:29:13.769Z,70.70
2022-08-26T04:31:40.627Z,70.70
2022-08-26T04:34:11.014Z,70.80
2022-08-26T04:36:38.374Z,70.90
2022-08-26T04:39:05.165Z,71.00
2022-08-26T04:41:31.972Z,71.10
2022-08-26T04:43:58.719Z,71.10
2022-08-26T04:46:25.522Z,71.10
2022-08-26T04:48:53.275Z,71.20
2022-08-26T04:51:20.225Z,71.30
2022-08-26T04:53:47.053Z,71.20
2022-08-26T04:56:13.933Z,71.30
2022-08-26T04:58:40.578Z,71.30
2022-08-26T05:01:08.262Z,71.40
2022-08-26T05:03:35.825Z,71.40
2022-08-26T05:06:04.649Z,71.40
2022-08-26T05:08:31.483Z,71.50
2022-08-26T05:10:58.252Z,71.50
2022-08-26T05:13:26.429Z,71.40
2022-08-26T05:15:53.195Z,71.40
2022-08-26T05:18:22.692Z,71.30
2022-08-26T05:20:51.658Z,71.20
2022-08-26T05:23:21.320Z,71.10
2022-08-26T05:25:50.582Z,71.00
2022-08-26T05:28:19.118Z,70.90
2022-08-26T05:30:46.520Z,70.80
2022-08-26T05:33:16.432Z,70.90
2022-08-26T05:35:43.901Z,70.80
2022-08-26T05:38:13.033Z,70.90
2022-08-26T05:40:44.927Z,70.90
2022-08-26T05:43:12.090Z,70.80
2022-08-26T05:45:45.823Z,70.70
2022-08-26T05:48:13.724Z,70.60
2022-08-26T05:50:44.456Z,70.60
2022-08-26T05:53:11.874Z,70.60
2022-08-26T05:55:43.871Z,70.70
2022-08-26T05:58:11.582Z,70.60
2022-08-26T06:00:38.686Z,70.60
2022-08-26T06:03:08.505Z,70.70
2022-08-26T06:05:41.537Z,70.90
2022-08-26T06:08:08.397Z,70.90
2022-08-26T06:10:42.480Z,71.00
2022-08-26T06:13:12.076Z,71.20
2022-08-26T06:15:46.093Z,71.10
2022-08-26T06:18:13.383Z,71.10
2022-08-26T06:20:40.856Z,71.10
2022-08-26T06:23:09.401Z,71.20
2022-08-26T06:25:40.614Z,71.30
2022-08-26T06:28:08.551Z,71.20
2022-08-26T06:30:38.997Z,71.30
2022-08-26T06:33:06.165Z,71.40
2022-08-26T06:35:38.407Z,71.20
2022-08-26T06:38:05.519Z,71.20
2022-08-26T06:40:32.435Z,71.20
2022-08-26T06:43:02.220Z,71.10
2022-08-26T06:45:29.702Z,71.10
2022-08-26T06:47:57.834Z,71.10
2022-08-26T06:50:24.614Z,70.90
2022-08-26T06:52:54.381Z,70.70
2022-08-26T06:55:22.972Z,70.50
2022-08-26T06:57:54.218Z,70.50
2022-08-26T07:00:21.052Z,70.20
2022-08-26T07:02:50.017Z,70.30
2022-08-26T07:05:17.622Z,70.10
2022-08-26T07:07:44.506Z,69.90
2022-08-26T07:10:11.945Z,69.60
2022-08-26T07:18:04.324Z,69.10
2022-08-26T07:20:44.277Z,69.10
2022-08-26T07:23:14.167Z,69.00
2022-08-26T07:25:56.649Z,69.00
2022-08-26T07:28:31.175Z,68.90
2022-08-26T07:31:02.652Z,68.80
2022-08-26T07:33:29.990Z,68.70
2022-08-26T07:36:00.820Z,68.80
2022-08-26T07:38:41.584Z,68.80
2022-08-26T07:41:08.999Z,69.00
2022-08-26T07:43:35.938Z,69.00
2022-08-26T07:46:03.065Z,68.80
2022-08-26T07:48:29.841Z,68.80
2022-08-26T07:50:57.790Z,68.60
2022-08-26T07:53:24.665Z,68.60
2022-08-26T07:55:51.525Z,68.60
2022-08-26T07:58:18.997Z,68.60
2022-08-26T08:00:45.773Z,68.60
2022-08-26T08:03:12.893Z,68.40
2022-08-26T08:05:41.294Z,68.20
2022-08-26T08:08:27.077Z,68.10
2022-08-26T08:10:55.739Z,68.10
2022-08-26T08:13:22.609Z,68.20
2022-08-26T08:15:56.367Z,68.10
2022-08-26T08:18:25.029Z,68.00
2022-08-26T08:21:04.835Z,67.70
2022-08-26T08:23:37.745Z,67.80
2022-08-26T08:26:09.321Z,67.70
2022-08-26T08:28:36.888Z,67.70
2022-08-26T08:31:03.746Z,67.60
2022-08-26T08:33:30.804Z,67.60
2022-08-26T08:35:58.180Z,67.40
2022-08-26T08:38:28.079Z,67.20
2022-08-26T08:40:54.735Z,67.30
2022-08-26T08:43:42.317Z,67.20
2022-08-26T08:46:11.482Z,67.20
2022-08-26T08:48:41.617Z,67.00
2022-08-26T08:51:34.617Z,66.80
2022-08-26T08:54:01.393Z,66.50
2022-08-26T08:56:59.711Z,66.90
2022-08-26T08:59:32.666Z,67.70
2022-08-26T09:02:29.758Z,68.40
2022-08-26T09:05:08.205Z,68.80
2022-08-26T09:07:58.765Z,69.30
2022-08-26T09:11:01.866Z,69.10
2022-08-26T09:13:32.036Z,68.80
2022-08-26T09:19:18.860Z,68.20
2022-08-26T09:21:46.009Z,68.00
2022-08-26T09:24:14.870Z,67.90
2022-08-26T09:26:57.235Z,67.60
2022-08-26T09:29:45.460Z,67.10
2022-08-26T09:32:55.996Z,67.10
2022-08-26T09:35:35.589Z,67.00
2022-08-26T09:38:05.409Z,66.80
2022-08-26T09:40:39.229Z,66.30
2022-08-26T09:43:30.510Z,65.80
2022-08-26T09:46:36.079Z,65.90
2022-08-26T09:49:38.358Z,65.70
2022-08-26T09:52:08.656Z,65.10
2022-08-26T09:54:36.443Z,65.10
2022-08-26T09:57:18.238Z,65.30
2022-08-26T09:59:44.946Z,65.50
2022-08-26T10:02:28.926Z,65.70
2022-08-26T10:04:56.590Z,65.60
2022-08-26T10:07:42.986Z,66.00
2022-08-26T10:10:13.612Z,65.60
2022-08-26T10:12:46.318Z,65.80
2022-08-26T10:15:13.107Z,65.70
2022-08-26T10:17:48.777Z,65.60
2022-08-26T10:20:23.426Z,65.60
2022-08-26T10:23:11.349Z,65.30
2022-08-26T10:25:46.940Z,65.20
2022-08-26T10:28:34.161Z,65.40
2022-08-26T10:31:15.980Z,64.80
2022-08-26T10:33:42.699Z,65.30
2022-08-26T10:36:15.227Z,65.50
2022-08-26T10:38:47.009Z,65.20
2022-08-26T10:41:18.240Z,65.20
2022-08-26T10:43:52.223Z,65.00
2022-08-26T10:46:28.513Z,65.00
2022-08-26T10:49:15.676Z,65.40
2022-08-26T10:51:47.705Z,64.90
2022-08-26T10:54:47.875Z,64.70
2022-08-26T10:57:47.791Z,64.50
2022-08-26T11:00:20.197Z,64.30
2022-08-26T11:02:48.202Z,64.60
2022-08-26T11:05:26.617Z,64.40
2022-08-26T11:08:15.261Z,64.40
2022-08-26T11:11:03.278Z,64.50
2022-08-26T11:14:07.051Z,64.00
2022-08-26T11:16:44.834Z,64.00
2022-08-26T11:19:50.600Z,63.90
2022-08-26T11:22:35.190Z,63.80
2022-08-26T11:25:18.220Z,63.20
2022-08-26T11:27:48.941Z,63.30
2022-08-26T11:30:19.100Z,63.10
2022-08-26T11:32:54.043Z,62.60
2022-08-26T11:35:26.313Z,62.00
2022-08-26T11:38:01.363Z,62.00
2022-08-26T11:40:35.452Z,62.30
2022-08-26T11:43:09.773Z,62.30
2022-08-26T11:45:43.479Z,62.50
2022-08-26T11:48:17.766Z,62.70
2022-08-26T11:51:27.954Z,62.90
2022-08-26T11:54:15.951Z,62.30
2022-08-26T11:57:18.742Z,62.40
2022-08-26T11:59:39.301Z,62.30
2022-08-26T12:02:16.344Z,62.20
2022-08-26T12:04:47.775Z,61.80
2022-08-26T12:07:18.523Z,62.00
2022-08-26T12:10:09.071Z,61.90
2022-08-26T12:12:49.065Z,61.70
2022-08-26T12:15:21.741Z,61.80
2022-08-26T12:18:28.912Z,61.20
2022-08-26T12:21:25.097Z,60.60
2022-08-26T12:27:32.979Z,59.60
2022-08-26T12:30:14.004Z,59.80
2022-08-26T12:33:05.164Z,59.40
2022-08-26T12:35:56.196Z,59.20
2022-08-26T12:38:27.958Z,59.10
2022-08-26T12:40:57.690Z,59.00
2022-08-26T12:43:45.279Z,58.80
2022-08-26T12:46:43.945Z,58.60
2022-08-26T12:49:20.934Z,58.40
2022-08-26T12:51:51.788Z,58.20
2022-08-26T12:54:20.689Z,58.40
2022-08-26T12:56:52.042Z,58.20
2022-08-26T12:59:27.695Z,58.10
2022-08-26T13:01:55.052Z,57.90
2022-08-26T13:04:33.054Z,58.10
2022-08-26T13:07:25.075Z,57.90
2022-08-26T13:10:00.325Z,57.90
2022-08-26T13:12:36.441Z,58.00
2022-08-26T13:15:12.419Z,57.70
2022-08-26T13:17:42.761Z,57.60
2022-08-26T13:20:50.110Z,57.40
2022-08-26T13:26:03.579Z,56.60
2022-08-26T13:28:36.485Z,56.00
2022-08-26T13:31:18.538Z,56.00
2022-08-26T13:33:48.138Z,55.60
2022-08-26T13:36:16.685Z,55.40
2022-08-26T13:38:43.977Z,55.40
2022-08-26T13:41:17.008Z,55.40
2022-08-26T13:43:50.770Z,54.80
2022-08-26T13:46:17.745Z,54.80
2022-08-26T13:48:45.750Z,54.60
2022-08-26T13:51:15.953Z,54.70
2022-08-26T13:53:44.171Z,54.90
2022-08-26T13:56:11.362Z,55.40
2022-08-26T13:58:41.453Z,55.80
2022-08-26T14:01:08.669Z,55.60
2022-08-26T14:03:36.015Z,55.40
2022-08-26T14:06:02.954Z,55.60
2022-08-26T14:08:30.083Z,55.50
2022-08-26T14:10:57.878Z,55.50
2022-08-26T14:13:25.633Z,55.10
2022-08-26T14:15:55.832Z,55.00
2022-08-26T14:18:39.718Z,55.00
2022-08-26T14:21:12.020Z,54.90
2022-08-26T14:23:51.725Z,55.30
2022-08-26T14:26:28.784Z,54.70
2022-08-26T14:28:57.812Z,54.90
2022-08-26T14:31:28.328Z,55.00
2022-08-26T14:33:58.395Z,55.00
2022-08-26T14:36:25.361Z,54.90
2022-08-26T14:38:57.794Z,54.60
2022-08-26T14:41:26.229Z,54.60
2022-08-26T14:43:55.664Z,54.40
2022-08-26T14:46:24.858Z,54.40
2022-08-26T14:48:51.724Z,54.40
2022-08-26T14:51:20.698Z,54.60
2022-08-26T14:53:49.175Z,54.70
2022-08-26T14:56:16.851Z,54.60
2022-08-26T14:58:43.854Z,54.50
2022-08-26T15:01:10.752Z,54.40
2022-08-26T15:03:37.575Z,54.40
2022-08-26T15:06:04.639Z,54.50
2022-08-26T15:08:32.360Z,54.50
2022-08-26T15:10:59.388Z,54.50
2022-08-26T15:13:27.161Z,54.60
2022-08-26T15:15:55.180Z,54.50
2022-08-26T15:18:22.749Z,54.70
2022-08-26T15:20:51.692Z,54.70
2022-08-26T15:23:19.140Z,54.90
2022-08-26T15:25:48.178Z,54.70
2022-08-26T15:28:14.993Z,54.40
2022-08-26T15:30:41.874Z,54.50
2022-08-26T15:33:15.007Z,54.50
2022-08-26T15:35:43.027Z,54.40
2022-08-26T15:38:10.832Z,54.20
2022-08-26T15:40:38.121Z,54.50
2022-08-26T15:43:18.476Z,54.50
2022-08-26T15:45:52.721Z,54.40
2022-08-26T15:48:20.896Z,54.30
2022-08-26T15:50:59.980Z,54.30
2022-08-26T15:53:30.763Z,54.40
2022-08-26T15:55:59.906Z,54.70
2022-08-26T15:58:27.214Z,55.00
2022-08-26T16:00:57.416Z,55.00
2022-08-26T16:03:25.110Z,54.90
2022-08-26T16:05:52.966Z,55.00
2022-08-26T16:08:20.114Z,54.90
2022-08-26T16:10:50.666Z,54.90
2022-08-26T16:13:20.109Z,55.00
2022-08-26T16:15:49.998Z,55.20
2022-08-26T16:18:16.986Z,55.10
2022-08-26T16:21:12.470Z,54.70
2022-08-26T16:23:38.062Z,54.60
2022-08-26T16:26:10.599Z,54.50
2022-08-26T16:28:37.873Z,54.10
2022-08-26T16:31:05.034Z,54.20
2022-08-26T16:33:31.833Z,54.20
2022-08-26T16:35:58.559Z,54.10
2022-08-26T16:38:25.239Z,54.30
2022-08-26T16:40:51.931Z,54.40
2022-08-26T16:43:18.646Z,54.60
2022-08-26T16:45:51.489Z,54.60
2022-08-26T16:48:18.229Z,54.70
2022-08-26T16:50:44.961Z,54.40
2022-08-26T16:55:49.223Z,54.10
2022-08-26T16:58:16.031Z,53.80
2022-08-26T17:00:42.925Z,53.90
2022-08-26T17:03:09.676Z,53.80
2022-08-26T17:05:43.612Z,53.60
2022-08-26T17:08:10.557Z,53.50
2022-08-26T17:10:37.460Z,53.50
2022-08-26T17:13:04.159Z,53.60
2022-08-26T17:15:30.924Z,53.70
2022-08-26T17:17:57.657Z,54.00
2022-08-26T17:20:24.880Z,54.20
2022-08-26T17:22:53.621Z,54.30
2022-08-26T17:25:26.462Z,54.40
2022-08-26T17:30:28.137Z,54.50
2022-08-26T17:32:57.652Z,54.30
2022-08-26T17:35:24.518Z,54.20
2022-08-26T17:37:51.352Z,54.30
2022-08-26T17:40:21.212Z,54.50
2022-08-26T17:42:47.972Z,54.60
2022-08-26T17:45:14.827Z,54.80
2022-08-26T17:47:41.802Z,55.20
2022-08-26T17:50:10.520Z,55.30
2022-08-26T17:52:37.602Z,55.30
2022-08-26T17:55:05.998Z,55.50
2022-08-26T17:57:32.758Z,55.90
2022-08-26T18:00:09.683Z,56.00
2022-08-26T18:02:37.374Z,56.10
2022-08-26T18:05:05.673Z,56.00
2022-08-26T18:07:32.531Z,56.10
2022-08-26T18:10:12.947Z,56.10
2022-08-26T18:12:40.051Z,56.10
2022-08-26T18:15:07.151Z,56.10
2022-08-26T18:17:33.994Z,55.90
2022-08-26T18:20:00.735Z,56.00
2022-08-26T18:22:27.558Z,55.90
2022-08-26T18:24:54.297Z,55.90
2022-08-26T18:27:25.953Z,56.00
2022-08-26T18:29:52.796Z,56.00
2022-08-26T18:32:19.516Z,56.00
2022-08-26T18:34:46.380Z,56.00
2022-08-26T18:37:14.517Z,56.10
2022-08-26T18:39:41.416Z,56.20
2022-08-26T18:42:08.191Z,56.30
2022-08-26T18:44:34.931Z,56.40
2022-08-26T18:47:01.666Z,56.70
2022-08-26T18:49:28.418Z,56.90
2022-08-26T18:51:55.318Z,57.10
2022-08-26T18:54:22.232Z,57.20
2022-08-26T18:56:49.026Z,57.30
2022-08-26T18:59:17.929Z,57.50
2022-08-26T19:01:44.880Z,57.60
2022-08-26T19:04:14.789Z,57.80
2022-08-26T19:06:43.640Z,58.00
2022-08-26T19:09:10.834Z,58.10
2022-08-26T19:11:43.002Z,58.20
2022-08-26T19:14:12.086Z,58.40
2022-08-26T19:16:38.933Z,58.50
2022-08-26T19:19:05.747Z,58.70
2022-08-26T19:21:35.788Z,58.90
2022-08-26T19:24:06.751Z,59.00
2022-08-26T19:26:33.952Z,59.10
2022-08-26T19:29:00.930Z,59.20
2022-08-26T19:31:27.893Z,59.50
2022-08-26T19:33:54.739Z,59.40
2022-08-26T19:36:23.355Z,59.60
2022-08-26T19:38:50.377Z,59.80
2022-08-26T19:41:19.525Z,60.00
2022-08-26T19:43:46.428Z,60.10
2022-08-26T19:46:15.551Z,60.20
2022-08-26T19:48:42.204Z,60.30
2022-08-26T19:51:08.936Z,60.40
2022-08-26T19:53:35.806Z,60.50
2022-08-26T19:56:02.731Z,60.60
2022-08-26T19:58:29.704Z,60.60
2022-08-26T20:00:56.573Z,60.80
2022-08-26T20:03:23.488Z,61.10
2022-08-26T20:05:50.314Z,61.20
2022-08-26T20:08:21.964Z,61.40
2022-08-26T20:10:49.841Z,61.50
2022-08-26T20:13:16.505Z,61.50
2022-08-26T20:15:43.214Z,61.30
2022-08-26T20:18:10.232Z,61.30
2022-08-26T20:20:37.030Z,61.20
2022-08-26T20:23:03.855Z,61.30
2022-08-26T20:25:32.223Z,61.20
2022-08-26T20:27:59.485Z,61.30
2022-08-26T20:30:26.270Z,61.30
2022-08-26T20:32:52.957Z,61.30
2022-08-26T20:35:19.666Z,61.40
2022-08-26T20:37:46.520Z,61.40
2022-08-26T20:40:13.861Z,61.40
2022-08-26T20:42:42.173Z,61.50
2022-08-26T20:45:10.755Z,61.50
2022-08-26T20:47:37.440Z,61.40
2022-08-26T20:50:04.615Z,61.50
2022-08-26T20:52:31.388Z,61.40
2022-08-26T20:54:58.343Z,61.30
2022-08-26T20:57:25.077Z,61.30
2022-08-26T20:59:51.798Z,61.30
2022-08-26T21:02:18.564Z,61.20
2022-08-26T21:04:45.503Z,61.20
2022-08-26T21:07:12.228Z,61.10
2022-08-26T21:09:38.950Z,61.20
2022-08-26T21:12:05.709Z,61.10
2022-08-26T21:14:32.560Z,61.10
2022-08-26T21:16:59.221Z,61.30
2022-08-26T21:19:25.926Z,61.30
2022-08-26T21:21:52.610Z,61.40
2022-08-26T21:24:19.248Z,61.30
2022-08-26T21:26:46.067Z,61.50
2022-08-26T21:29:12.928Z,61.50
2022-08-26T21:31:45.043Z,61.60
2022-08-26T21:34:13.959Z,61.70
2022-08-26T21:36:40.708Z,61.70
2022-08-26T21:39:11.523Z,61.70
2022-08-26T21:41:39.426Z,61.70
2022-08-26T21:44:06.070Z,61.70
2022-08-26T21:46:32.882Z,61.90
2022-08-26T21:49:01.080Z,61.90
2022-08-26T21:51:29.901Z,62.00
2022-08-26T21:53:57.114Z,62.10
2022-08-26T21:56:25.038Z,62.20
2022-08-26T21:58:52.691Z,62.40
2022-08-26T22:01:20.787Z,62.30
2022-08-26T22:03:48.042Z,62.50
2022-08-26T22:06:19.851Z,62.60
2022-08-26T22:08:46.549Z,62.80
2022-08-26T22:11:13.333Z,62.80
2022-08-26T22:13:40.553Z,62.80
2022-08-26T22:16:07.523Z,62.90
2022-08-26T22:18:34.228Z,63.00
2022-08-26T22:21:02.937Z,63.10
2022-08-26T22:23:29.738Z,63.20
2022-08-26T22:25:56.706Z,63.30
2022-08-26T22:28:23.447Z,63.40
2022-08-26T22:30:50.372Z,63.50
2022-08-26T22:33:17.324Z,63.60
2022-08-26T22:35:46.327Z,63.60
2022-08-26T22:38:13.041Z,63.70
2022-08-26T22:40:48.212Z,63.70
2022-08-26T22:43:14.948Z,63.80
2022-08-26T22:45:42.948Z,63.90
2022-08-26T22:48:10.273Z,63.80
2022-08-26T22:50:37.208Z,64.00
2022-08-26T22:53:04.211Z,64.10
2022-08-26T22:55:30.894Z,64.20
2022-08-26T22:57:57.543Z,64.30
2022-08-26T23:00:32.086Z,64.40
2022-08-26T23:02:59.808Z,64.50
2022-08-26T23:05:26.547Z,64.50
2022-08-26T23:07:53.264Z,64.50
2022-08-26T23:10:20.138Z,64.50
2022-08-26T23:12:46.817Z,64.60
2022-08-26T23:15:13.513Z,64.60
2022-08-26T23:17:40.172Z,64.60
2022-08-26T23:20:09.826Z,64.80
2022-08-26T23:22:37.328Z,64.90
2022-08-26T23:25:07.788Z,65.00
2022-08-26T23:27:39.126Z,65.00
2022-08-26T23:30:07.349Z,65.00
2022-08-26T23:32:34.033Z,65.00
2022-08-26T23:35:00.896Z,65.00
2022-08-26T23:37:38.493Z,65.10
2022-08-26T23:40:10.779Z,65.10
2022-08-26T23:42:37.493Z,65.20
2022-08-26T23:45:08.099Z,65.20
2022-08-26T23:47:34.787Z,65.30
2022-08-26T23:50:01.467Z,65.30
2022-08-26T23:52:28.214Z,65.40
2022-08-26T23:54:54.882Z,65.40
2022-08-26T23:57:22.425Z,65.50
2022-08-26T23:59:49.104Z,65.60
